Time;durP1;ratioP1;P1;durP2;ratioP2;P2;SDS_P1;SDS_P2;PMS_P1;PMS_P2;Temp;Humidity;BMP_temperature;BMP_pressure;BME280_temperature;BME280_humidity;BME280_pressure;Samples;Min_cycle;Max_cycle;Signal;HPM_P1;HPM_P2
2022/02/01 00:00:04;;;;;;;0.85;0.10;;;;;;;19.18;48.54;100558.22;5033314;28;20029;-66
2022/02/01 00:02:44;;;;;;;0.10;0.00;;;;;;;19.17;47.80;100545.63;5032685;28;20028;-65
2022/02/01 00:05:20;;;;;;;0.10;0.10;;;;;;;19.15;48.75;100547.69;5033085;28;20040;-65
2022/02/01 00:10:18;;;;;;;0.95;0.10;;;;;;;19.18;49.02;100547.31;5033307;28;20112;-65
2022/02/01 00:37:20;;;;;;;0.22;0.10;;;;;;;19.14;46.85;100525.00;4951864;29;20432;-66
2022/02/01 00:39:46;;;;;;;0.20;0.20;;;;;;;19.14;48.69;100518.72;4951829;29;20027;-65
2022/02/01 00:42:14;;;;;;;1.00;0.10;;;;;;;19.13;47.24;100517.03;4952062;29;20403;-66
2022/02/01 00:44:40;;;;;;;0.20;0.10;;;;;;;19.12;48.19;100515.31;4951784;29;20039;-66
2022/02/01 00:47:07;;;;;;;0.52;0.05;;;;;;;19.11;47.37;100519.09;4952019;29;20062;-66
2022/02/01 00:49:34;;;;;;;0.30;0.08;;;;;;;19.12;47.73;100531.69;4951532;28;20037;-66
2022/02/01 00:52:00;;;;;;;0.70;0.10;;;;;;;19.11;47.72;100513.63;4951857;29;20159;-66
2022/02/01 00:54:26;;;;;;;0.60;0.10;;;;;;;19.13;48.56;100517.03;4951192;29;20123;-64
2022/02/01 00:56:51;;;;;;;0.22;0.00;;;;;;;19.14;47.81;100513.25;4958247;28;20530;-66
2022/02/01 00:59:16;;;;;;;0.52;0.25;;;;;;;19.11;46.62;100513.63;4971184;28;20082;-66
2022/02/01 01:01:42;;;;;;;0.17;0.08;;;;;;;19.13;48.77;100506.13;4970962;28;20078;-66
2022/02/01 01:04:07;;;;;;;0.40;0.10;;;;;;;19.12;47.75;100504.44;4971236;28;20022;-65
2022/02/01 01:06:32;;;;;;;0.47;0.10;;;;;;;19.10;46.90;100503.78;4970849;28;20033;-66
2022/02/01 01:08:58;;;;;;;0.20;0.10;;;;;;;19.10;47.59;100496.44;4971040;28;20454;-65
2022/02/01 01:11:24;;;;;;;0.90;0.10;;;;;;;19.11;47.29;100491.84;4970941;28;20514;-66
2022/02/01 01:43:41;;;;;;;0.47;0.00;;;;;;;19.03;46.36;100461.97;5032186;28;20024;-67
2022/02/01 01:54:03;;;;;;;0.28;0.10;;;;;;;19.05;46.36;100435.38;5031609;28;20470;-66
2022/02/01 01:56:33;;;;;;;0.20;0.10;;;;;;;19.05;46.66;100432.66;5031551;28;20029;-67
2022/02/01 01:59:03;;;;;;;0.45;0.13;;;;;;;19.03;45.61;100430.13;5031758;28;20033;-66
2022/02/01 02:01:29;;;;;;;0.40;0.10;;;;;;;18.98;45.98;100418.06;5033430;28;20025;-66
2022/02/01 02:03:55;;;;;;;0.90;0.00;;;;;;;19.05;46.48;100424.47;5035031;28;20111;-66
2022/02/01 02:06:20;;;;;;;0.68;0.10;;;;;;;19.07;48.40;100425.13;5035251;28;20049;-66
2022/02/01 02:08:49;;;;;;;0.30;0.13;;;;;;;19.06;47.26;100423.44;5035086;28;20104;-66
2022/02/01 02:11:42;;;;;;;1.08;0.17;;;;;;;19.05;46.93;100424.47;5033925;28;20060;-67
2022/02/01 02:14:21;;;;;;;0.15;0.15;;;;;;;19.03;45.87;100418.38;5035107;28;20053;-67
2022/02/01 02:16:52;;;;;;;1.00;0.10;;;;;;;19.05;46.43;100416.31;5034986;28;20029;-66
2022/02/01 02:19:19;;;;;;;0.20;0.00;;;;;;;19.00;46.52;100414.16;5033735;28;20022;-66
2022/02/01 02:21:51;;;;;;;1.02;0.20;;;;;;;19.00;47.12;100413.31;5034826;28;20026;-66
2022/02/01 02:24:17;;;;;;;0.17;0.10;;;;;;;19.00;46.49;100407.84;5034898;28;20431;-66
2022/02/01 02:26:43;;;;;;;0.32;0.00;;;;;;;19.01;46.36;100409.53;5034706;28;20057;-66
2022/02/01 02:29:08;;;;;;;0.43;0.10;;;;;;;19.02;47.24;100405.78;5034948;28;20104;-66
2022/02/01 02:31:36;;;;;;;1.23;0.10;;;;;;;18.99;47.49;100401.56;5034665;28;20100;-67
2022/02/01 02:34:07;;;;;;;0.50;0.20;;;;;;;18.99;47.71;100396.13;5034696;28;20057;-66
2022/02/01 02:36:36;;;;;;;0.32;0.05;;;;;;;18.98;46.23;100393.53;5034561;28;20060;-67
2022/02/01 02:39:10;;;;;;;0.20;0.10;;;;;;;18.99;47.96;100395.28;5034668;28;20057;-65
2022/02/01 02:41:50;;;;;;;0.20;0.10;;;;;;;18.98;46.15;100399.00;5034995;28;20021;-66
2022/02/01 02:47:02;;;;;;;0.88;0.15;;;;;;;19.00;46.48;100396.97;5034730;28;20064;-66
2022/02/01 02:49:28;;;;;;;0.10;0.00;;;;;;;18.99;47.09;100403.44;5034311;28;20125;-66
2022/02/01 02:51:53;;;;;;;0.45;0.10;;;;;;;19.00;47.02;100396.97;5034475;28;20037;-65
2022/02/01 02:54:21;;;;;;;0.68;0.10;;;;;;;18.96;46.59;100396.47;5034620;28;20037;-66
2022/02/01 02:56:54;;;;;;;0.22;0.00;;;;;;;18.97;46.27;100402.75;5034301;28;20028;-66
2022/02/01 02:59:24;;;;;;;0.80;0.20;;;;;;;18.99;47.52;100395.28;5034293;28;20100;-65
2022/02/01 03:01:50;;;;;;;0.68;0.13;;;;;;;18.97;45.64;100395.44;5034493;28;20033;-65
2022/02/01 03:04:18;;;;;;;0.70;0.10;;;;;;;18.93;46.29;100403.13;5034195;28;20026;-67
2022/02/01 03:06:44;;;;;;;0.10;0.00;;;;;;;18.98;45.97;100401.72;5033950;28;20033;-66
2022/02/01 03:09:11;;;;;;;0.10;0.00;;;;;;;18.97;45.33;100394.56;5034249;28;20059;-65
2022/02/01 03:11:37;;;;;;;0.65;0.28;;;;;;;18.96;46.13;100396.47;5033927;28;20025;-66
2022/02/01 03:14:12;;;;;;;0.52;0.10;;;;;;;18.97;45.98;100397.31;5033886;28;20042;-66
2022/02/01 03:17:09;;;;;;;2.47;0.10;;;;;;;18.97;48.03;100391.84;5033815;28;20028;-66
2022/02/01 03:22:07;;;;;;;0.27;0.10;;;;;;;18.92;45.46;100378.81;5034192;28;20060;-65
2022/02/01 03:24:32;;;;;;;0.40;0.10;;;;;;;18.94;48.02;100383.03;5033665;28;20108;-66
2022/02/01 03:26:57;;;;;;;0.30;0.10;;;;;;;18.93;46.70;100378.63;5033715;28;20029;-65
2022/02/01 03:29:23;;;;;;;1.58;0.10;;;;;;;18.96;47.46;100373.81;5033648;28;20070;-65
2022/02/01 03:31:49;;;;;;;0.38;0.17;;;;;;;18.98;47.30;100374.47;5033581;28;20029;-66
2022/02/01 03:34:14;;;;;;;0.00;0.00;;;;;;;18.96;46.05;100379.28;5033616;28;20029;-66
2022/02/01 03:36:39;;;;;;;0.32;0.10;;;;;;;18.96;47.37;100373.81;5033402;28;20026;-66
2022/02/01 03:39:05;;;;;;;0.03;0.00;;;;;;;18.95;47.13;100367.53;5033629;28;20029;-66
2022/02/01 03:41:30;;;;;;;0.00;0.00;;;;;;;18.91;46.18;100364.34;5033319;28;20159;-66
2022/02/01 03:43:56;;;;;;;0.45;0.10;;;;;;;18.94;45.53;100361.22;5033446;28;20472;-66
2022/02/01 03:46:21;;;;;;;0.10;0.10;;;;;;;18.90;45.55;100356.34;5033436;28;20029;-66
2022/02/01 03:48:47;;;;;;;1.52;0.05;;;;;;;18.93;46.76;100359.53;5033201;28;20029;-66
2022/02/01 03:51:13;;;;;;;1.02;0.10;;;;;;;18.90;46.63;100359.09;5033285;28;20148;-66
2022/02/01 03:53:38;;;;;;;0.15;0.10;;;;;;;18.91;45.32;100356.16;5033168;28;20124;-65
2022/02/01 03:56:04;;;;;;;2.30;0.20;;;;;;;18.94;47.13;100349.50;5033213;28;20372;-67
2022/02/01 03:58:29;;;;;;;0.52;0.35;;;;;;;18.91;45.85;100349.88;5033001;28;20025;-66
2022/02/01 04:00:55;;;;;;;0.98;0.30;;;;;;;18.92;47.24;100348.84;5033123;28;20028;-66
2022/02/01 04:03:21;;;;;;;1.73;0.10;;;;;;;18.88;45.04;100350.25;5031625;28;20053;-67
2022/02/01 04:05:46;;;;;;;0.57;0.10;;;;;;;18.91;46.63;100345.28;5032970;28;20060;-66
2022/02/01 04:08:14;;;;;;;0.10;0.00;;;;;;;18.94;46.68;100341.31;5033090;28;20025;-66
2022/02/01 04:10:39;;;;;;;0.52;0.10;;;;;;;18.89;45.96;100331.00;5033110;28;20032;-66
2022/02/01 04:13:05;;;;;;;0.20;0.10;;;;;;;18.91;46.62;100318.03;5032882;28;20017;-66
2022/02/01 04:15:31;;;;;;;0.50;0.00;;;;;;;18.90;47.15;100316.34;5032724;28;20059;-66
2022/02/01 04:17:57;;;;;;;0.20;0.05;;;;;;;19.00;47.53;100309.78;5032804;28;20067;-66
2022/02/01 04:20:23;;;;;;;0.77;0.40;;;;;;;19.34;49.11;100307.31;5032858;28;20021;-66
2022/02/01 04:22:48;;;;;;;0.85;0.10;;;;;;;19.46;50.08;100304.91;5032596;28;20029;-67
2022/02/01 04:25:14;;;;;;;0.40;0.15;;;;;;;19.53;50.06;100306.69;5032391;28;20480;-66
2022/02/01 04:27:42;;;;;;;0.47;0.10;;;;;;;19.60;51.24;100300.50;5032573;28;20029;-67
2022/02/01 04:30:11;;;;;;;2.03;0.20;;;;;;;19.61;51.28;100303.03;5032680;28;20022;-66
2022/02/01 04:32:40;;;;;;;0.70;0.30;;;;;;;19.65;51.44;100295.31;5032499;28;20021;-67
2022/02/01 04:35:08;;;;;;;0.22;0.10;;;;;;;19.70;51.91;100292.88;5032539;28;20473;-65
2022/02/01 04:37:34;;;;;;;0.35;0.10;;;;;;;19.74;52.35;100278.63;5032377;28;20104;-67
2022/02/01 04:40:00;;;;;;;0.82;0.20;;;;;;;19.75;51.69;100287.66;5032457;28;20109;-65
2022/02/01 04:42:28;;;;;;;0.52;0.10;;;;;;;19.76;52.29;100290.19;5031075;28;20460;-66
2022/02/01 04:44:53;;;;;;;1.20;0.30;;;;;;;19.81;51.62;100282.25;5032507;28;20029;-65
2022/02/01 04:47:19;;;;;;;0.63;0.20;;;;;;;19.80;52.76;100293.38;5032528;28;20025;-66
2022/02/01 04:49:45;;;;;;;1.00;0.08;;;;;;;19.83;52.17;100290.28;5032289;28;20036;-66
2022/02/01 04:52:10;;;;;;;0.10;0.10;;;;;;;19.83;51.94;100280.22;5032450;28;20021;-66
2022/02/01 04:54:35;;;;;;;0.10;0.00;;;;;;;19.87;52.41;100280.66;5032017;28;20049;-66
2022/02/01 04:57:00;;;;;;;1.27;0.20;;;;;;;19.94;52.35;100272.53;5032319;28;20021;-67
2022/02/01 04:59:26;;;;;;;0.30;0.10;;;;;;;19.92;52.02;100278.19;5032198;28;20380;-66
2022/02/01 05:01:51;;;;;;;0.40;0.32;;;;;;;19.96;51.87;100274.03;5032574;28;20127;-67
2022/02/01 05:04:19;;;;;;;0.45;0.10;;;;;;;19.97;52.02;100264.78;5032524;28;20032;-66
2022/02/01 05:06:51;;;;;;;1.23;0.10;;;;;;;20.04;51.19;100260.25;5032076;28;20025;-66
2022/02/01 05:09:16;;;;;;;0.90;0.10;;;;;;;20.05;51.69;100256.50;5032207;28;20369;-65
2022/02/01 05:11:42;;;;;;;0.00;0.00;;;;;;;20.10;51.03;100253.16;5032062;28;20025;-67
2022/02/01 05:14:12;;;;;;;0.22;0.10;;;;;;;20.12;51.07;100251.91;5032151;28;20515;-65
2022/02/01 05:17:11;;;;;;;0.50;0.10;;;;;;;20.15;50.74;100250.69;5032043;28;20030;-67
2022/02/01 05:19:47;;;;;;;0.98;0.20;;;;;;;20.18;50.30;100241.28;5030615;28;20039;-67
2022/02/01 05:22:16;;;;;;;0.70;0.28;;;;;;;20.20;50.60;100236.47;5032188;28;20376;-66
2022/02/01 05:24:42;;;;;;;0.45;0.10;;;;;;;20.22;50.81;100237.94;5032007;28;20022;-67
2022/02/01 05:27:12;;;;;;;0.70;0.00;;;;;;;20.25;50.77;100240.28;5032422;28;20354;-65
2022/02/01 05:29:38;;;;;;;1.42;0.20;;;;;;;20.25;50.40;100240.28;5031974;28;20029;-67
2022/02/01 05:32:17;;;;;;;0.57;0.10;;;;;;;20.27;50.07;100245.53;5031974;28;20456;-66
2022/02/01 05:34:42;;;;;;;0.80;0.10;;;;;;;20.28;50.47;100236.28;5031780;28;20092;-66
2022/02/01 05:37:07;;;;;;;0.20;0.10;;;;;;;20.28;50.55;100231.69;5035160;28;20460;-66
2022/02/01 05:39:32;;;;;;;0.50;0.28;;;;;;;20.31;50.29;100231.28;5035607;28;20024;-67
2022/02/01 05:41:59;;;;;;;0.50;0.10;;;;;;;20.33;50.00;100231.09;5035681;28;20095;-66
2022/02/01 05:44:24;;;;;;;0.63;0.10;;;;;;;20.31;50.33;100224.97;5035580;28;20483;-67
2022/02/01 05:46:50;;;;;;;1.92;0.08;;;;;;;20.33;49.86;100212.84;5035615;28;20044;-67
2022/02/01 05:49:18;;;;;;;0.57;0.10;;;;;;;20.34;50.22;100216.41;5035877;28;20029;-66
2022/02/01 05:51:43;;;;;;;1.88;0.20;;;;;;;20.37;49.77;100211.41;5035412;28;20465;-67
2022/02/01 05:54:08;;;;;;;0.88;0.03;;;;;;;20.38;49.66;100206.78;5035153;28;20056;-67
2022/02/01 05:56:34;;;;;;;1.45;0.20;;;;;;;20.37;49.71;100210.56;5035297;28;20483;-66
2022/02/01 05:58:59;;;;;;;1.38;0.10;;;;;;;20.39;49.65;100208.47;5036040;28;20033;-67
2022/02/01 06:01:25;;;;;;;0.10;0.10;;;;;;;20.40;50.08;100196.50;5035314;28;20384;-65
2022/02/01 06:03:50;;;;;;;0.63;0.03;;;;;;;20.42;49.44;100208.94;5035085;28;20028;-67
2022/02/01 06:06:15;;;;;;;1.77;0.30;;;;;;;20.42;49.68;100194.44;5034065;28;20381;-65
2022/02/01 06:08:41;;;;;;;0.00;0.00;;;;;;;20.40;49.85;100194.59;5035109;28;20025;-67
2022/02/01 06:11:07;;;;;;;0.15;0.08;;;;;;;20.40;49.33;100189.16;5035302;28;20507;-67
2022/02/01 06:13:36;;;;;;;0.68;0.20;;;;;;;20.43;49.78;100190.66;5034931;28;20072;-67
2022/02/01 06:16:03;;;;;;;1.23;0.15;;;;;;;20.46;49.55;100192.97;5035137;28;20484;-66
2022/02/01 06:18:28;;;;;;;1.45;0.10;;;;;;;20.44;49.45;100197.81;5034904;28;20021;-67
2022/02/01 06:20:54;;;;;;;0.45;0.10;;;;;;;20.47;49.73;100194.66;5035018;28;20037;-66
2022/02/01 06:23:19;;;;;;;0.10;0.10;;;;;;;20.47;49.12;100189.22;5034911;28;20071;-66
2022/02/01 06:28:13;;;;;;;0.40;0.10;;;;;;;20.48;49.98;100179.97;5035246;28;20022;-67
2022/02/01 06:30:38;;;;;;;1.35;0.15;;;;;;;20.50;48.80;100179.81;5034736;28;20048;-66
2022/02/01 06:33:04;;;;;;;0.65;0.20;;;;;;;20.50;49.31;100177.91;5034782;28;20029;-67
2022/02/01 06:35:30;;;;;;;0.90;0.20;;;;;;;20.50;48.80;100169.72;5034650;28;20029;-66
2022/02/01 06:37:55;;;;;;;0.75;0.10;;;;;;;20.52;49.04;100178.56;5033648;28;20048;-67
2022/02/01 06:40:21;;;;;;;0.22;0.08;;;;;;;20.52;48.92;100174.97;5034646;28;20026;-66
2022/02/01 06:42:47;;;;;;;0.35;0.00;;;;;;;20.52;48.89;100173.09;5034601;28;20032;-66
2022/02/01 06:45:12;;;;;;;0.75;0.30;;;;;;;20.55;48.68;100169.94;5034721;28;20032;-66
2022/02/01 06:47:37;;;;;;;0.73;0.13;;;;;;;20.52;49.24;100162.16;5034133;28;20021;-67
2022/02/01 06:50:04;;;;;;;0.47;0.00;;;;;;;20.53;49.36;100150.19;5034487;28;20033;-67
2022/02/01 06:52:31;;;;;;;0.95;0.20;;;;;;;20.54;48.98;100149.16;5034130;28;20460;-66
2022/02/01 06:55:00;;;;;;;0.38;0.10;;;;;;;20.51;49.40;100146.84;5034394;28;20427;-67
2022/02/01 06:57:26;;;;;;;0.55;0.15;;;;;;;20.53;49.43;100142.00;5034219;28;20053;-66
2022/02/01 06:59:51;;;;;;;0.30;0.00;;;;;;;20.54;49.09;100140.97;5034374;28;20365;-66
2022/02/01 07:02:16;;;;;;;0.15;0.10;;;;;;;20.55;49.33;100131.72;5034242;28;20064;-66
2022/02/01 07:04:41;;;;;;;0.15;0.10;;;;;;;20.55;48.87;100131.72;5034093;28;20021;-66
2022/02/01 07:07:07;;;;;;;0.32;0.05;;;;;;;20.58;49.74;100131.31;5034298;28;20457;-66
2022/02/01 07:09:33;;;;;;;1.25;0.35;;;;;;;20.57;48.77;100129.63;5034020;28;20025;-67
2022/02/01 07:11:59;;;;;;;1.45;0.20;;;;;;;20.58;49.10;100125.84;5034073;28;20464;-66
2022/02/01 07:14:24;;;;;;;0.45;0.08;;;;;;;20.57;49.74;100124.16;5034183;28;20025;-66
2022/02/01 07:16:49;;;;;;;0.13;0.00;;;;;;;20.58;48.62;100122.28;5033928;28;20445;-66
2022/02/01 07:19:14;;;;;;;0.38;0.00;;;;;;;20.61;49.13;100130.91;5034034;28;20025;-66
2022/02/01 07:21:40;;;;;;;1.17;0.73;;;;;;;20.60;49.39;100129.22;5033867;28;20029;-66
2022/02/01 07:24:12;;;;;;;1.20;0.10;;;;;;;20.63;49.51;100127.97;5033912;28;20063;-66
2022/02/01 07:26:40;;;;;;;0.98;0.10;;;;;;;20.62;49.10;100131.75;5033634;28;20032;-66
2022/02/01 07:29:05;;;;;;;2.08;0.38;;;;;;;20.58;49.53;100135.94;5033877;28;20059;-66
2022/02/01 07:31:31;;;;;;;0.50;0.10;;;;;;;20.62;48.57;100121.66;5033604;28;20057;-66
2022/02/01 07:33:56;;;;;;;0.50;0.10;;;;;;;20.65;49.25;100125.88;5033661;28;20028;-67
2022/02/01 07:36:22;;;;;;;1.40;0.30;;;;;;;20.62;49.40;100124.38;5032249;28;20025;-65
2022/02/01 07:38:47;;;;;;;0.57;0.10;;;;;;;20.61;48.93;100111.78;5033432;28;20068;-66
2022/02/01 07:41:13;;;;;;;0.98;0.20;;;;;;;20.64;48.86;100114.09;5033523;28;20021;-67
2022/02/01 07:43:38;;;;;;;1.83;0.40;;;;;;;20.63;49.73;100115.16;5033388;28;20018;-66
2022/02/01 07:46:08;;;;;;;0.30;0.28;;;;;;;20.67;48.85;100119.19;5033465;28;20026;-67
2022/02/01 07:48:33;;;;;;;0.63;0.20;;;;;;;20.68;48.57;100111.81;5033214;28;20025;-67
2022/02/01 07:50:59;;;;;;;0.10;0.00;;;;;;;20.65;49.36;100093.94;5029616;28;20108;-67
2022/02/01 07:53:24;;;;;;;1.30;0.10;;;;;;;20.65;49.81;100104.84;5032695;28;20053;-66
2022/02/01 07:55:49;;;;;;;0.70;0.38;;;;;;;20.66;48.93;100100.28;5026842;28;20018;-67
2022/02/01 07:58:15;;;;;;;0.40;0.00;;;;;;;20.66;48.86;100105.72;5016267;28;20040;-65
2022/02/01 08:00:40;;;;;;;0.30;0.10;;;;;;;20.67;49.00;100091.88;5027363;28;20117;-66
2022/02/01 08:03:06;;;;;;;0.10;0.00;;;;;;;20.65;49.24;100088.47;5020402;28;20029;-66
2022/02/01 08:05:33;;;;;;;0.25;0.13;;;;;;;20.71;49.72;100087.66;5020320;28;20029;-65
2022/02/01 08:08:00;;;;;;;0.20;0.03;;;;;;;20.66;49.52;100076.53;5019219;28;20030;-64
2022/02/01 08:10:30;;;;;;;1.50;0.10;;;;;;;20.71;49.25;100065.81;5020004;28;20060;-66
2022/02/01 08:18:29;;;;;;;0.73;0.20;;;;;;;20.72;49.86;100061.19;5018038;28;20071;-66
2022/02/01 08:21:01;;;;;;;1.67;0.30;;;;;;;20.68;50.18;100049.84;5023802;28;20025;-65
2022/02/01 08:23:27;;;;;;;0.77;0.17;;;;;;;20.70;50.04;100064.13;5030006;28;20025;-64
2022/02/01 08:25:53;;;;;;;0.88;0.20;;;;;;;20.71;50.06;100054.06;5031402;28;20026;-65
2022/02/01 08:28:20;;;;;;;0.98;0.20;;;;;;;20.73;50.29;100057.41;5031112;28;20039;-65
2022/02/01 08:30:48;;;;;;;1.85;0.28;;;;;;;20.73;50.54;100052.78;5031036;28;20119;-66
2022/02/01 08:33:13;;;;;;;1.08;0.45;;;;;;;20.75;50.71;100054.47;5031153;28;20017;-65
2022/02/01 08:35:38;;;;;;;0.38;0.30;;;;;;;20.75;51.37;100059.94;5031309;28;20071;-65
2022/02/01 08:38:04;;;;;;;1.10;0.40;;;;;;;20.73;51.07;100058.25;5031169;28;20063;-65
2022/02/01 08:40:29;;;;;;;0.50;0.13;;;;;;;20.73;51.16;100074.66;5032122;28;20021;-65
2022/02/01 08:42:54;;;;;;;1.80;0.30;;;;;;;20.76;51.39;100072.56;5026444;28;20040;-65
2022/02/01 08:45:24;;;;;;;0.38;0.20;;;;;;;20.79;51.20;100061.22;5021232;28;20025;-66
2022/02/01 08:47:51;;;;;;;2.33;0.30;;;;;;;20.76;51.27;100061.63;5023778;28;20108;-66
2022/02/01 08:50:23;;;;;;;0.52;0.13;;;;;;;20.73;52.23;100063.72;5023961;28;20041;-64
2022/02/01 08:52:49;;;;;;;0.30;0.20;;;;;;;20.76;52.04;100061.63;5017745;28;20042;-66
2022/02/01 08:55:21;;;;;;;0.43;0.20;;;;;;;20.74;52.20;100067.28;5030621;28;20025;-65
2022/02/01 08:57:48;;;;;;;1.25;0.30;;;;;;;20.77;52.19;100060.56;5027425;28;20075;-65
2022/02/01 09:00:18;;;;;;;0.60;0.20;;;;;;;20.80;52.37;100062.88;5014799;28;20045;-65
2022/02/01 09:02:43;;;;;;;1.63;0.30;;;;;;;20.76;51.97;100061.63;5024105;28;20485;-66
2022/02/01 09:05:09;;;;;;;1.02;0.35;;;;;;;20.79;52.32;100058.47;5019518;28;20022;-65
2022/02/01 09:07:35;;;;;;;0.40;0.17;;;;;;;20.80;52.03;100051.97;5020023;28;20033;-66
2022/02/01 09:10:01;;;;;;;0.90;0.20;;;;;;;20.77;52.63;100041.47;5033328;28;20025;-65
2022/02/01 09:12:26;;;;;;;0.25;0.17;;;;;;;20.77;52.41;100036.00;5031370;28;20052;-65
2022/02/01 09:14:52;;;;;;;0.20;0.10;;;;;;;20.78;52.85;100021.28;5024267;28;20090;-65
2022/02/01 09:17:19;;;;;;;3.42;0.30;;;;;;;20.82;52.49;100019.81;5025086;28;20033;-63
2022/02/01 09:19:45;;;;;;;0.22;0.10;;;;;;;20.81;52.67;100016.25;5026772;28;20069;-65
2022/02/01 09:22:11;;;;;;;0.65;0.10;;;;;;;20.83;52.46;100016.06;5026351;28;20412;-65
2022/02/01 09:24:37;;;;;;;1.55;0.22;;;;;;;20.81;53.25;100009.94;5033647;28;20388;-65
2022/02/01 09:27:03;;;;;;;0.90;0.22;;;;;;;20.80;52.75;100008.25;5034506;28;20021;-64
2022/02/01 09:29:28;;;;;;;1.08;0.10;;;;;;;20.80;52.87;100003.63;5031824;28;20040;-65
2022/02/01 09:31:54;;;;;;;0.75;0.10;;;;;;;20.81;52.67;99999.00;5030490;28;20540;-65
2022/02/01 09:34:21;;;;;;;1.20;0.30;;;;;;;20.83;52.73;99991.47;5038057;28;20021;-65
2022/02/01 09:36:51;;;;;;;2.58;0.55;;;;;;;20.81;52.78;99988.09;5031622;28;20048;-65
2022/02/01 09:39:17;;;;;;;1.40;0.47;;;;;;;20.80;52.87;99981.78;5033840;28;20021;-66
2022/02/01 09:41:42;;;;;;;1.77;0.30;;;;;;;20.84;53.32;99971.31;5035910;28;20461;-65
2022/02/01 09:44:10;;;;;;;1.75;0.17;;;;;;;20.82;53.21;99967.91;5025711;28;20061;-65
2022/02/01 09:46:35;;;;;;;2.85;0.13;;;;;;;20.83;53.25;99969.63;5035061;28;20080;-65
2022/02/01 09:49:02;;;;;;;0.98;0.10;;;;;;;20.82;53.27;99965.19;5023069;28;20033;-64
2022/02/01 09:51:27;;;;;;;2.58;0.20;;;;;;;20.84;52.91;99968.56;5023530;28;20064;-64
2022/02/01 09:53:53;;;;;;;0.10;0.10;;;;;;;20.84;52.99;99965.84;5032023;28;20073;-64
2022/02/01 09:56:19;;;;;;;0.93;0.43;;;;;;;20.85;52.98;99970.25;5035114;28;20071;-65
2022/02/01 09:58:48;;;;;;;0.70;0.25;;;;;;;20.84;53.58;99965.84;5037828;28;20029;-64
2022/02/01 10:01:14;;;;;;;0.75;0.10;;;;;;;20.83;52.73;99962.28;5034636;28;20022;-64
2022/02/01 10:03:40;;;;;;;2.50;0.50;;;;;;;20.84;53.13;99963.13;5031783;28;20056;-64
2022/02/01 10:06:08;;;;;;;2.47;0.10;;;;;;;20.86;53.12;99961.00;5019731;28;20072;-64
2022/02/01 10:08:35;;;;;;;0.30;0.05;;;;;;;20.85;53.37;99953.88;5028315;28;20057;-64
2022/02/01 10:11:00;;;;;;;1.02;0.40;;;;;;;20.88;53.46;99946.09;5023638;28;20036;-64
2022/02/01 10:13:26;;;;;;;0.20;0.13;;;;;;;20.88;53.43;99946.09;5019874;28;20399;-65
2022/02/01 10:16:10;;;;;;;0.77;0.20;;;;;;;20.85;53.36;99930.13;5026323;28;20020;-64
2022/02/01 10:18:35;;;;;;;0.65;0.10;;;;;;;20.86;53.22;99930.97;5020869;28;20032;-65
2022/02/01 10:21:08;;;;;;;1.45;0.03;;;;;;;20.85;53.02;99934.75;5022515;28;20025;-65
2022/02/01 10:23:35;;;;;;;0.30;0.13;;;;;;;20.86;53.13;99930.97;5026444;28;20037;-65
2022/02/01 10:26:08;;;;;;;0.57;0.10;;;;;;;20.85;53.33;99934.75;5036041;28;20033;-65
2022/02/01 10:29:05;;;;;;;0.47;0.20;;;;;;;20.86;53.31;99920.03;5024849;28;20548;-64
2022/02/01 10:37:01;;;;;;;0.43;0.20;;;;;;;20.87;53.03;99922.56;5025258;28;20469;-69
2022/02/01 10:39:29;;;;;;;3.00;0.13;;;;;;;20.85;53.66;99918.34;5020400;28;20492;-68
2022/02/01 10:41:59;;;;;;;2.22;0.13;;;;;;;20.86;53.20;99911.84;5004868;28;20037;-67
2022/02/01 10:44:46;;;;;;;1.17;0.10;;;;;;;20.88;53.59;99907.00;5024320;28;20029;-65
2022/02/01 10:47:17;;;;;;;0.52;0.30;;;;;;;20.86;53.25;99906.38;5026828;28;20029;-68
2022/02/01 10:49:43;;;;;;;0.30;0.10;;;;;;;20.86;53.20;99900.91;5027173;28;20048;-67
2022/02/01 10:52:12;;;;;;;0.70;0.20;;;;;;;20.87;53.44;99894.41;4998290;28;20404;-68
2022/02/01 10:54:42;;;;;;;0.63;0.10;;;;;;;20.87;53.71;99891.66;5023548;28;20290;-71
2022/02/01 10:57:10;;;;;;;0.20;0.20;;;;;;;20.88;53.94;99882.41;5008633;28;20143;-68
2022/02/01 10:59:36;;;;;;;1.52;0.15;;;;;;;20.88;54.13;99885.16;5028355;28;20207;-68
2022/02/01 11:02:03;;;;;;;0.52;0.10;;;;;;;20.89;53.53;99873.16;5031489;28;20052;-68
2022/02/01 11:04:31;;;;;;;0.52;0.20;;;;;;;20.87;53.95;99864.34;5014629;28;20137;-68
2022/02/01 11:06:57;;;;;;;0.38;0.08;;;;;;;20.88;53.88;99863.28;5031680;28;20080;-68
2022/02/01 11:09:25;;;;;;;0.93;0.17;;;;;;;20.90;53.50;99872.94;5012855;28;20038;-68
2022/02/01 11:11:52;;;;;;;2.80;0.20;;;;;;;20.89;53.80;99864.97;5014204;28;20030;-67
2022/02/01 11:14:23;;;;;;;0.60;0.20;;;;;;;20.88;54.00;99855.09;5013167;28;20057;-68
2022/02/01 11:16:48;;;;;;;0.95;0.10;;;;;;;20.90;53.54;99856.56;5012724;28;20103;-68
2022/02/01 11:19:14;;;;;;;0.40;0.10;;;;;;;20.90;53.58;99855.72;5012735;28;20057;-69
2022/02/01 11:21:53;;;;;;;1.75;0.20;;;;;;;20.88;53.56;99858.66;5014077;28;20091;-68
2022/02/01 11:24:32;;;;;;;0.43;0.30;;;;;;;20.88;53.45;99850.47;5013870;28;20022;-68
2022/02/01 11:27:03;;;;;;;0.20;0.00;;;;;;;20.89;53.94;99859.50;5013879;28;20029;-67
2022/02/01 11:29:38;;;;;;;2.22;0.28;;;;;;;20.90;53.50;99855.72;5012744;28;20018;-68
2022/02/01 11:32:04;;;;;;;1.45;0.30;;;;;;;20.90;53.99;99850.25;5013778;28;20032;-67
2022/02/01 11:34:34;;;;;;;0.93;0.30;;;;;;;20.90;53.93;99851.09;5012513;28;20030;-69
2022/02/01 11:37:03;;;;;;;0.85;0.10;;;;;;;20.91;53.84;99841.00;5013582;28;20122;-67
2022/02/01 11:39:30;;;;;;;0.35;0.00;;;;;;;20.91;53.31;99841.00;5013371;28;20029;-68
2022/02/01 11:41:57;;;;;;;2.85;0.30;;;;;;;20.90;53.59;99833.88;5033132;28;20152;-69
2022/02/01 11:44:34;;;;;;;1.38;0.10;;;;;;;20.92;53.27;99831.75;5032045;28;20020;-67
2022/02/01 11:46:59;;;;;;;1.35;0.10;;;;;;;20.90;53.59;99829.25;5019993;28;20044;-68
2022/02/01 11:49:25;;;;;;;1.37;0.20;;;;;;;20.91;53.55;99819.16;5033054;28;20034;-64
2022/02/01 11:51:51;;;;;;;0.50;0.20;;;;;;;20.93;53.08;99817.03;5032418;28;20255;-67
2022/02/01 11:54:23;;;;;;;0.93;0.10;;;;;;;20.90;53.83;99823.78;5030043;28;20072;-69
2022/02/01 11:56:49;;;;;;;0.80;0.20;;;;;;;20.91;53.35;99808.22;5023522;28;20030;-69
2022/02/01 11:59:25;;;;;;;0.22;0.10;;;;;;;20.92;53.76;99809.91;5030738;28;20481;-69
2022/02/01 12:02:00;;;;;;;0.08;0.00;;;;;;;20.89;53.88;99804.88;5033186;28;20026;-66
2022/02/01 12:04:25;;;;;;;2.25;0.30;;;;;;;20.85;54.42;99799.00;5019410;28;20022;-67
2022/02/01 12:07:06;;;;;;;0.85;0.20;;;;;;;20.84;54.33;99791.03;5030089;28;20400;-68
2022/02/01 12:09:32;;;;;;;1.25;0.20;;;;;;;20.80;53.36;99795.19;5048294;28;20029;-69
2022/02/01 12:12:00;;;;;;;0.70;0.05;;;;;;;20.80;53.46;99779.66;5053283;28;20036;-68
2022/02/01 12:14:27;;;;;;;0.65;0.00;;;;;;;20.82;53.39;99765.78;5051063;28;20028;-69
2022/02/01 12:16:54;;;;;;;0.90;0.20;;;;;;;20.80;53.43;99751.50;5052665;28;20029;-69
2022/02/01 12:19:36;;;;;;;0.57;0.10;;;;;;;20.83;53.08;99740.19;5052517;28;20051;-69
2022/02/01 12:22:14;;;;;;;0.22;0.20;;;;;;;20.80;52.87;99729.66;5025126;28;20088;-68
2022/02/01 12:24:40;;;;;;;0.00;0.00;;;;;;;20.82;52.46;99733.00;5011432;28;20021;-68
2022/02/01 12:27:06;;;;;;;1.30;0.00;;;;;;;20.83;53.13;99731.97;5012860;28;20033;-68
2022/02/01 12:29:31;;;;;;;0.00;0.00;;;;;;;20.80;52.48;99729.66;5012630;28;20021;-68
2022/02/01 12:32:05;;;;;;;0.20;0.00;;;;;;;20.82;52.87;99722.06;5012798;28;20504;-67
2022/02/01 12:34:31;;;;;;;;;;;;;;;20.83;52.90;99707.41;5011723;28;20064;-67
2022/02/01 12:36:56;;;;;;;0.00;0.00;;;;;;;20.82;52.12;99706.53;5012757;28;19913;-67
2022/02/01 12:39:33;;;;;;;0.00;0.00;;;;;;;20.81;53.16;99704.84;5011788;28;20432;-66
2022/02/01 12:42:05;;;;;;;0.35;0.20;;;;;;;20.83;51.68;99707.41;5031079;28;20443;-67
2022/02/01 12:47:01;;;;;;;0.00;0.00;;;;;;;20.83;51.84;99707.41;5038944;28;20025;-67
2022/02/01 12:49:36;;;;;;;0.00;0.00;;;;;;;20.85;52.50;99691.63;5048807;28;20455;-67
2022/02/01 12:52:03;;;;;;;0.10;0.00;;;;;;;20.81;52.79;99698.56;5028546;28;20041;-67
2022/02/01 12:54:37;;;;;;;0.00;0.00;;;;;;;20.81;53.13;99699.38;5026356;28;20077;-67